Time;durP1;ratioP1;P1;durP2;ratioP2;P2;SDS_P1;SDS_P2;PMS_P1;PMS_P2;Temp;Humidity;BMP_temperature;BMP_pressure;BME280_temperature;BME280_humidity;BME280_pressure;Samples;Min_cycle;Max_cycle;Signal;HPM_P1;HPM_P2
2021/11/09 00:01:11;;;;;;;4.10;1.20;;;22.50;51.90;;;;;;5038218;28;20034;-60
2021/11/09 00:03:57;;;;;;;2.05;1.05;;;22.50;52.00;;;;;;5036913;28;20060;-56
2021/11/09 00:06:26;;;;;;;2.75;1.10;;;22.50;52.30;;;;;;5029753;28;20041;-57
2021/11/09 00:09:05;;;;;;;3.17;1.33;;;22.50;52.00;;;;;;5035833;28;20017;-57
2021/11/09 00:11:31;;;;;;;2.25;1.25;;;22.40;52.00;;;;;;5031770;28;20048;-60
2021/11/09 00:13:57;;;;;;;2.17;1.17;;;22.40;52.00;;;;;;5028236;28;20492;-59
2021/11/09 00:16:23;;;;;;;2.90;1.23;;;22.40;52.10;;;;;;5033980;28;20022;-59
2021/11/09 00:18:49;;;;;;;3.08;1.20;;;22.40;52.10;;;;;;5033708;28;20072;-58
2021/11/09 00:21:16;;;;;;;3.53;1.50;;;22.40;52.10;;;;;;5043258;28;20037;-57
2021/11/09 00:23:42;;;;;;;4.20;1.35;;;22.40;52.20;;;;;;5040415;28;20029;-60
2021/11/09 00:26:08;;;;;;;2.08;1.00;;;22.30;52.10;;;;;;5036158;28;20096;-58
2021/11/09 00:28:34;;;;;;;2.05;1.00;;;22.30;52.10;;;;;;5027283;28;20033;-58
2021/11/09 00:31:00;;;;;;;2.33;1.10;;;22.30;52.10;;;;;;5037083;28;20034;-56
2021/11/09 00:33:26;;;;;;;3.25;1.30;;;22.30;52.20;;;;;;5034831;28;20029;-60
2021/11/09 00:35:51;;;;;;;3.20;1.30;;;22.30;52.20;;;;;;5037445;28;20671;-58
2021/11/09 00:38:17;;;;;;;2.10;1.10;;;22.30;52.20;;;;;;5030266;28;20089;-60
2021/11/09 00:40:44;;;;;;;1.83;1.00;;;22.20;52.20;;;;;;5041643;28;20037;-59
2021/11/09 00:43:12;;;;;;;2.15;1.15;;;22.20;52.20;;;;;;5037293;28;20031;-60
2021/11/09 00:45:38;;;;;;;2.55;1.10;;;22.20;52.80;;;;;;5039232;28;20033;-57
2021/11/09 00:48:04;;;;;;;2.90;1.20;;;22.20;52.30;;;;;;5038556;28;20168;-60
2021/11/09 00:50:33;;;;;;;2.53;1.30;;;22.20;52.30;;;;;;5041339;28;20037;-56
2021/11/09 00:53:00;;;;;;;2.40;1.17;;;22.10;52.30;;;;;;5033122;28;20099;-61
2021/11/09 00:55:28;;;;;;;2.85;1.30;;;22.10;52.30;;;;;;5035339;28;20372;-59
2021/11/09 00:57:54;;;;;;;2.28;1.17;;;22.10;52.30;;;;;;5033775;28;20436;-57
2021/11/09 01:00:24;;;;;;;3.58;1.00;;;22.10;52.40;;;;;;5036061;28;20032;-59
2021/11/09 01:02:50;;;;;;;;;;;22.10;52.40;;;;;;5038529;28;20037;-59
2021/11/09 01:05:20;;;;;;;2.33;0.90;;;22.10;52.40;;;;;;5035493;28;19909;-56
2021/11/09 01:07:48;;;;;;;3.90;1.35;;;22.10;52.40;;;;;;5029992;28;20112;-58
2021/11/09 01:10:15;;;;;;;2.50;1.10;;;22.00;52.40;;;;;;5034117;28;20037;-58
2021/11/09 01:12:41;;;;;;;2.33;0.98;;;22.00;52.40;;;;;;5033366;28;20039;-59
2021/11/09 01:15:07;;;;;;;3.15;1.40;;;22.00;52.40;;;;;;5037165;28;20362;-60
2021/11/09 01:17:33;;;;;;;2.63;1.10;;;22.00;52.50;;;;;;5035915;28;20025;-58
2021/11/09 01:19:59;;;;;;;2.00;1.05;;;22.00;52.50;;;;;;5036574;28;20044;-57
2021/11/09 01:22:25;;;;;;;1.80;1.08;;;22.00;52.50;;;;;;5034286;28;20050;-59
2021/11/09 01:24:51;;;;;;;1.85;1.10;;;22.00;52.50;;;;;;5029711;28;20033;-59
2021/11/09 01:27:17;;;;;;;4.13;1.30;;;22.00;52.50;;;;;;5033420;28;20025;-58
2021/11/09 01:29:44;;;;;;;1.60;0.90;;;21.90;52.50;;;;;;5031567;28;20033;-60
2021/11/09 01:32:09;;;;;;;2.20;1.10;;;21.90;52.50;;;;;;5034125;28;20147;-58
2021/11/09 01:34:35;;;;;;;2.72;1.02;;;21.90;52.60;;;;;;5041646;28;20113;-59
2021/11/09 01:37:01;;;;;;;1.80;1.20;;;21.90;52.60;;;;;;5038441;28;20026;-58
2021/11/09 01:39:26;;;;;;;2.03;1.13;;;21.90;52.60;;;;;;5037456;28;20032;-58
2021/11/09 01:41:52;;;;;;;1.80;1.05;;;21.90;52.60;;;;;;5032645;28;20029;-57
2021/11/09 01:44:18;;;;;;;2.63;1.38;;;21.90;52.60;;;;;;5029332;28;20705;-58
2021/11/09 01:46:45;;;;;;;1.98;0.98;;;21.90;52.70;;;;;;5032824;28;20056;-59
2021/11/09 01:49:12;;;;;;;2.28;1.10;;;21.80;52.60;;;;;;5037783;28;20400;-59
2021/11/09 01:51:38;;;;;;;1.98;1.10;;;21.90;52.70;;;;;;5033110;28;20489;-59
2021/11/09 01:54:05;;;;;;;1.55;1.00;;;21.80;52.60;;;;;;5031736;28;20029;-60
2021/11/09 01:56:32;;;;;;;2.65;1.20;;;21.80;52.70;;;;;;5032898;28;20095;-58
2021/11/09 01:58:59;;;;;;;2.30;1.00;;;21.80;52.70;;;;;;5033146;28;20401;-58
2021/11/09 02:01:26;;;;;;;1.52;1.00;;;21.80;52.70;;;;;;5030076;28;20047;-59
2021/11/09 02:03:55;;;;;;;1.80;1.05;;;21.80;52.70;;;;;;5038867;28;20561;-56
2021/11/09 02:06:22;;;;;;;2.25;1.13;;;21.80;52.70;;;;;;5039125;28;20029;-59
2021/11/09 02:08:48;;;;;;;2.10;1.10;;;21.80;52.80;;;;;;5031211;28;20123;-59
2021/11/09 02:11:14;;;;;;;1.45;0.93;;;21.80;52.80;;;;;;5036786;28;20104;-58
2021/11/09 02:13:42;;;;;;;3.63;1.30;;;21.80;52.80;;;;;;5030325;28;20029;-59
2021/11/09 02:16:12;;;;;;;1.77;1.08;;;21.70;52.70;;;;;;5029846;28;20034;-56
2021/11/09 02:18:38;;;;;;;;;;;21.70;52.80;;;;;;5028507;28;20421;-59
2021/11/09 02:21:10;;;;;;;2.47;0.95;;;21.70;52.80;;;;;;5042856;28;19912;-59
2021/11/09 02:23:38;;;;;;;2.05;1.00;;;21.70;52.80;;;;;;5040590;28;20495;-60
2021/11/09 02:26:05;;;;;;;1.80;0.80;;;21.70;52.80;;;;;;5029757;28;20551;-60
2021/11/09 02:28:31;;;;;;;2.17;1.00;;;21.70;52.80;;;;;;5040564;28;20063;-56
2021/11/09 02:30:58;;;;;;;1.70;1.10;;;21.70;52.90;;;;;;5035732;28;20041;-59
2021/11/09 02:33:24;;;;;;;3.00;1.38;;;21.60;52.90;;;;;;5031413;28;20033;-60
2021/11/09 02:35:49;;;;;;;1.77;1.02;;;21.60;52.80;;;;;;5034134;28;20039;-59
2021/11/09 02:38:15;;;;;;;2.00;1.00;;;21.60;52.90;;;;;;5037568;28;20053;-59
2021/11/09 02:40:41;;;;;;;1.98;1.10;;;21.60;52.90;;;;;;5043898;28;20486;-57
2021/11/09 02:43:10;;;;;;;2.30;1.30;;;21.60;52.90;;;;;;5036098;28;20758;-58
2021/11/09 02:46:03;;;;;;;2.20;1.08;;;21.60;53.00;;;;;;5037793;28;20017;-58
2021/11/09 02:48:33;;;;;;;2.20;1.05;;;21.60;53.00;;;;;;5039969;28;20517;-57
2021/11/09 02:51:14;;;;;;;1.77;1.10;;;21.60;53.00;;;;;;5042418;28;20020;-58
2021/11/09 02:53:44;;;;;;;1.83;1.08;;;21.60;53.00;;;;;;5040832;28;20136;-58
2021/11/09 02:56:17;;;;;;;2.50;1.08;;;21.50;52.90;;;;;;5045055;28;20025;-56
2021/11/09 02:58:53;;;;;;;1.50;1.10;;;21.60;53.00;;;;;;5039113;28;20044;-56
2021/11/09 03:06:41;;;;;;;2.13;1.10;;;21.50;53.00;;;;;;5035329;28;20021;-57
2021/11/09 03:11:42;;;;;;;2.25;1.00;;;21.50;53.00;;;;;;5039599;28;20599;-57
2021/11/09 03:14:08;;;;;;;1.67;1.00;;;21.50;53.00;;;;;;5036697;28;20113;-59
2021/11/09 03:16:37;;;;;;;1.90;1.02;;;21.50;53.00;;;;;;5038149;28;20151;-58
2021/11/09 03:19:20;;;;;;;1.80;1.10;;;21.50;53.10;;;;;;5035444;28;20103;-60
2021/11/09 03:46:40;;;;;;;1.80;0.98;;;21.40;53.10;;;;;;5044839;28;20698;-59
2021/11/09 03:49:07;;;;;;;1.67;1.02;;;21.40;53.10;;;;;;5034344;28;20675;-58
2021/11/09 03:51:35;;;;;;;1.88;0.98;;;21.40;53.20;;;;;;5040960;28;20029;-59
2021/11/09 03:54:03;;;;;;;2.03;1.00;;;21.40;53.20;;;;;;5036373;28;20537;-55
2021/11/09 03:56:39;;;;;;;1.42;0.88;;;21.40;53.20;;;;;;5033749;28;20066;-58
2021/11/09 03:59:11;;;;;;;2.10;0.90;;;21.30;53.20;;;;;;5039331;28;20036;-58
2021/11/09 04:02:17;;;;;;;1.45;1.08;;;21.30;53.20;;;;;;5038357;28;20115;-58
2021/11/09 04:04:36;;;;;;;1.25;0.85;;;21.40;53.20;;;;;;5035745;28;20057;-59
2021/11/09 04:07:10;;;;;;;1.80;0.98;;;21.30;53.20;;;;;;5049469;28;20057;-57
2021/11/09 04:13:22;;;;;;;2.05;1.08;;;21.30;53.20;;;;;;5008830;28;20053;-58
2021/11/09 04:20:52;;;;;;;1.10;0.80;;;21.30;53.20;;;;;;5034346;28;20414;-55
2021/11/09 05:11:32;;;;;;;1.25;0.95;;;21.10;53.40;;;;;;5028407;28;20033;-57
2021/11/09 05:13:58;;;;;;;1.25;0.88;;;21.10;53.40;;;;;;5037987;28;20039;-58
2021/11/09 05:16:24;;;;;;;1.70;1.10;;;21.10;53.50;;;;;;5031559;28;20031;-60
2021/11/09 05:18:49;;;;;;;1.70;0.90;;;21.10;53.50;;;;;;5043581;28;20017;-56
2021/11/09 05:21:15;;;;;;;1.48;0.93;;;21.10;53.50;;;;;;5036321;28;20039;-56
2021/11/09 05:23:41;;;;;;;1.40;0.85;;;21.10;53.50;;;;;;5047202;28;20033;-56
2021/11/09 05:26:06;;;;;;;1.80;1.05;;;21.10;53.50;;;;;;5039763;28;20500;-59
2021/11/09 05:28:32;;;;;;;2.03;1.10;;;21.10;53.50;;;;;;5033149;28;20116;-58
2021/11/09 05:30:58;;;;;;;1.60;1.00;;;21.10;53.60;;;;;;5040212;28;20112;-57
2021/11/09 05:33:24;;;;;;;1.65;1.00;;;21.10;53.60;;;;;;5044150;28;20029;-55
2021/11/09 05:35:51;;;;;;;1.67;0.90;;;21.10;53.60;;;;;;5031506;28;20112;-56
2021/11/09 05:38:24;;;;;;;1.45;1.02;;;21.10;53.60;;;;;;5035625;28;20033;-55
2021/11/09 05:40:57;;;;;;;1.40;0.90;;;21.00;53.60;;;;;;5040789;28;20954;-58
2021/11/09 05:43:22;;;;;;;1.95;0.90;;;21.10;53.60;;;;;;5038429;28;20422;-58
2021/11/09 05:45:49;;;;;;;1.77;0.98;;;21.10;53.60;;;;;;5035116;28;20025;-58
2021/11/09 05:48:15;;;;;;;1.92;1.00;;;21.10;53.60;;;;;;5037774;28;20021;-59
2021/11/09 05:50:40;;;;;;;1.38;1.00;;;21.10;53.60;;;;;;5043268;28;20041;-59
2021/11/09 05:53:06;;;;;;;1.90;1.10;;;21.10;53.60;;;;;;5035391;28;20032;-58
2021/11/09 05:55:32;;;;;;;1.30;0.95;;;21.10;53.70;;;;;;5036546;28;20473;-59
2021/11/09 05:57:58;;;;;;;1.55;0.90;;;21.00;53.60;;;;;;5034885;28;20029;-57
2021/11/09 06:00:23;;;;;;;1.52;0.80;;;21.00;53.60;;;;;;5032295;28;20035;-58
2021/11/09 06:02:49;;;;;;;1.63;1.00;;;21.00;53.60;;;;;;5033741;28;20028;-56
2021/11/09 06:05:15;;;;;;;2.17;1.00;;;21.10;53.70;;;;;;5035128;28;20143;-58
2021/11/09 06:07:41;;;;;;;1.30;0.90;;;21.00;53.70;;;;;;5038220;28;20037;-57
2021/11/09 06:10:07;;;;;;;1.48;0.90;;;21.00;53.70;;;;;;5036351;28;20056;-58
2021/11/09 06:12:33;;;;;;;1.80;1.10;;;21.00;53.70;;;;;;5044309;28;20528;-53
2021/11/09 06:14:59;;;;;;;1.92;1.00;;;21.00;53.70;;;;;;5045595;28;20036;-58
2021/11/09 06:17:25;;;;;;;2.38;1.15;;;21.00;53.70;;;;;;5038429;28;20013;-58
2021/11/09 06:19:50;;;;;;;1.42;0.90;;;21.00;53.70;;;;;;5036750;28;20043;-56
2021/11/09 06:22:16;;;;;;;1.65;1.05;;;21.00;53.70;;;;;;5037385;28;20148;-58
2021/11/09 06:24:42;;;;;;;1.70;1.05;;;21.00;53.70;;;;;;5042478;28;20636;-59
2021/11/09 06:27:08;;;;;;;2.03;1.00;;;21.00;53.80;;;;;;5037679;28;20111;-57
2021/11/09 06:29:35;;;;;;;1.58;0.90;;;21.00;53.80;;;;;;5046140;28;20080;-58
2021/11/09 06:32:00;;;;;;;1.45;1.00;;;21.00;53.80;;;;;;5037930;28;20037;-58
2021/11/09 06:34:27;;;;;;;3.40;1.02;;;21.00;53.80;;;;;;5045715;28;20039;-55
2021/11/09 06:36:52;;;;;;;1.58;1.00;;;21.00;53.80;;;;;;5038826;28;20033;-59
2021/11/09 06:39:18;;;;;;;1.27;0.98;;;21.00;53.80;;;;;;5034583;28;20046;-59
2021/11/09 06:41:44;;;;;;;2.15;1.00;;;21.00;53.80;;;;;;5036964;28;20572;-57
2021/11/09 06:44:10;;;;;;;1.88;1.00;;;21.00;53.80;;;;;;5035937;28;20342;-58
2021/11/09 06:46:36;;;;;;;1.70;1.05;;;21.00;53.80;;;;;;5037220;28;20040;-58
2021/11/09 06:49:02;;;;;;;1.60;0.90;;;21.00;53.80;;;;;;5042555;28;20025;-57
2021/11/09 06:51:27;;;;;;;1.70;1.00;;;21.00;53.80;;;;;;5032775;28;20582;-56
2021/11/09 06:53:53;;;;;;;1.42;0.90;;;21.00;53.80;;;;;;5037093;28;20035;-60
2021/11/09 06:56:19;;;;;;;1.73;0.95;;;21.00;53.90;;;;;;5035690;28;20112;-57
2021/11/09 06:58:45;;;;;;;1.98;1.20;;;21.00;54.10;;;;;;5037306;28;20032;-55
2021/11/09 07:01:10;;;;;;;2.00;1.15;;;21.10;55.00;;;;;;5034757;28;20045;-55
2021/11/09 07:03:36;;;;;;;1.70;1.10;;;21.30;55.10;;;;;;5039701;28;20029;-58
2021/11/09 07:06:04;;;;;;;3.10;1.20;;;21.50;55.10;;;;;;5040324;28;20143;-58
2021/11/09 07:08:30;;;;;;;2.05;1.10;;;21.70;55.00;;;;;;5043456;28;20609;-55
2021/11/09 07:10:55;;;;;;;3.28;1.20;;;21.90;54.90;;;;;;5040966;28;20028;-57
2021/11/09 07:13:21;;;;;;;2.05;1.30;;;22.10;54.80;;;;;;5037684;28;20029;-58
2021/11/09 07:15:47;;;;;;;1.73;1.00;;;22.20;54.60;;;;;;5041441;28;20412;-58
2021/11/09 07:18:13;;;;;;;1.70;1.10;;;22.40;54.60;;;;;;5044134;28;20024;-58
2021/11/09 07:20:38;;;;;;;1.75;1.10;;;22.50;54.60;;;;;;5034546;28;20102;-58
2021/11/09 07:23:05;;;;;;;2.72;1.00;;;22.70;54.60;;;;;;5043725;28;20086;-55
2021/11/09 07:25:31;;;;;;;1.40;1.00;;;22.80;54.30;;;;;;5040066;28;20028;-58
2021/11/09 07:27:58;;;;;;;1.77;0.90;;;23.00;54.40;;;;;;5036759;28;20033;-58
2021/11/09 07:30:27;;;;;;;1.40;0.90;;;23.10;54.30;;;;;;5037044;28;20022;-55
2021/11/09 07:32:53;;;;;;;;;;;23.30;54.00;;;;;;5036787;28;20092;-59
2021/11/09 07:35:18;;;;;;;0.82;0.65;;;23.40;53.70;;;;;;5041741;28;20012;-58
2021/11/09 07:37:44;;;;;;;0.57;0.50;;;23.40;53.60;;;;;;5038017;28;20046;-58
2021/11/09 07:40:12;;;;;;;1.15;0.68;;;23.30;53.90;;;;;;5040875;28;20104;-56
2021/11/09 07:42:47;;;;;;;0.75;0.65;;;23.20;54.10;;;;;;5042130;28;20052;-56
2021/11/09 07:45:18;;;;;;;1.48;0.90;;;23.20;53.80;;;;;;5040575;28;20017;-59
2021/11/09 07:47:44;;;;;;;1.50;1.00;;;23.10;52.50;;;;;;5041571;28;20091;-58
2021/11/09 07:50:11;;;;;;;2.05;1.15;;;23.10;52.20;;;;;;5035182;28;20028;-59
2021/11/09 07:52:37;;;;;;;1.80;1.00;;;23.10;51.80;;;;;;5041408;28;20029;-59
2021/11/09 07:55:09;;;;;;;2.33;1.10;;;23.10;51.60;;;;;;5033337;28;20083;-57
2021/11/09 07:57:43;;;;;;;2.10;1.25;;;23.00;51.30;;;;;;5036920;28;20121;-57
2021/11/09 08:00:22;;;;;;;1.75;1.00;;;23.00;51.30;;;;;;5039687;28;20083;-57
2021/11/09 08:03:35;;;;;;;1.20;0.95;;;23.00;51.20;;;;;;5034599;28;20037;-59
2021/11/09 08:05:55;;;;;;;1.98;1.10;;;23.00;51.00;;;;;;5032770;28;20041;-58
2021/11/09 08:08:34;;;;;;;1.40;0.90;;;23.10;51.10;;;;;;5034868;28;20029;-58
2021/11/09 08:11:00;;;;;;;;;;;23.00;51.50;;;;;;5037836;28;20123;-58
2021/11/09 08:13:26;;;;;;;2.53;1.20;;;23.10;51.00;;;;;;5037693;28;19935;-58
2021/11/09 08:15:51;;;;;;;1.38;0.95;;;23.10;51.00;;;;;;5032228;28;20033;-54
2021/11/09 08:18:17;;;;;;;2.50;1.02;;;23.10;50.90;;;;;;5045517;28;20039;-58
2021/11/09 08:20:43;;;;;;;1.55;1.00;;;23.10;51.00;;;;;;5032051;28;20037;-57
2021/11/09 08:23:08;;;;;;;1.52;0.98;;;23.10;50.90;;;;;;5032723;28;20033;-57
2021/11/09 08:25:34;;;;;;;2.25;1.00;;;23.10;50.90;;;;;;5032222;28;20029;-58
2021/11/09 08:28:01;;;;;;;1.80;1.15;;;23.10;50.80;;;;;;5034706;28;20100;-55
2021/11/09 08:30:27;;;;;;;1.35;0.90;;;23.10;50.90;;;;;;5034443;28;20043;-58
2021/11/09 08:32:53;;;;;;;1.63;1.00;;;23.10;50.90;;;;;;5045351;28;20025;-58
2021/11/09 08:35:22;;;;;;;1.70;1.00;;;23.10;50.90;;;;;;5041712;28;20022;-55
2021/11/09 08:37:52;;;;;;;1.90;1.23;;;23.10;50.90;;;;;;5034617;28;20048;-58
2021/11/09 08:40:21;;;;;;;1.83;1.00;;;23.10;50.80;;;;;;5036187;28;20465;-59
2021/11/09 08:42:55;;;;;;;2.40;1.10;;;23.10;50.80;;;;;;5036150;28;20036;-57
2021/11/09 08:47:53;;;;;;;1.65;1.00;;;23.10;50.80;;;;;;5038163;28;20461;-57
2021/11/09 08:50:21;;;;;;;2.00;1.23;;;23.10;50.80;;;;;;5041089;28;20548;-55
2021/11/09 08:52:47;;;;;;;1.80;1.00;;;23.10;50.80;;;;;;5034109;28;20381;-59
2021/11/09 09:05:43;;;;;;;1.80;1.00;;;23.20;50.90;;;;;;5039089;28;20388;-58
2021/11/09 09:08:08;;;;;;;1.92;1.08;;;23.20;50.90;;;;;;5041105;28;20025;-58
2021/11/09 09:10:34;;;;;;;1.60;1.10;;;23.20;50.90;;;;;;5035663;28;20105;-58
2021/11/09 09:13:00;;;;;;;1.45;0.90;;;23.20;50.80;;;;;;5030503;28;20029;-58
2021/11/09 09:15:25;;;;;;;1.88;1.00;;;23.20;50.90;;;;;;5035892;28;20083;-59
2021/11/09 09:17:51;;;;;;;1.73;1.00;;;23.20;50.90;;;;;;5034391;28;20033;-59
2021/11/09 09:20:26;;;;;;;2.08;1.05;;;23.20;50.90;;;;;;5032930;28;20101;-55
2021/11/09 09:33:29;;;;;;;1.80;1.10;;;23.20;50.90;;;;;;5036429;28;20069;-58
2021/11/09 09:55:34;;;;;;;1.60;1.02;;;23.30;50.80;;;;;;5033866;28;20116;-57
2021/11/09 09:58:01;;;;;;;1.83;1.05;;;23.30;50.70;;;;;;5039289;28;20125;-57
2021/11/09 10:00:26;;;;;;;2.03;1.10;;;23.20;50.70;;;;;;5039949;28;20032;-59
2021/11/09 10:02:55;;;;;;;2.15;1.10;;;23.20;50.70;;;;;;5032870;28;20030;-57
2021/11/09 10:05:23;;;;;;;1.90;1.25;;;23.30;50.80;;;;;;5039665;28;20461;-58
2021/11/09 10:07:52;;;;;;;2.22;1.30;;;23.30;50.80;;;;;;5036055;28;20116;-58
2021/11/09 10:10:17;;;;;;;;;;;23.30;50.80;;;;;;5038407;28;20407;-57
2021/11/09 10:12:46;;;;;;;3.28;1.23;;;23.30;50.90;;;;;;5030605;28;19923;-58
2021/11/09 10:15:14;;;;;;;2.05;1.10;;;23.30;50.90;;;;;;5032141;28;20025;-58
2021/11/09 10:17:46;;;;;;;2.58;1.10;;;23.30;51.00;;;;;;5028482;28;20131;-55
2021/11/09 10:20:16;;;;;;;2.28;1.10;;;23.30;50.90;;;;;;5037139;28;20033;-56
2021/11/09 10:22:43;;;;;;;2.05;1.20;;;23.30;51.00;;;;;;5032870;28;20033;-57
2021/11/09 10:25:14;;;;;;;1.50;0.82;;;23.30;51.00;;;;;;5037838;28;20120;-58
2021/11/09 10:27:41;;;;;;;2.28;1.10;;;23.30;51.00;;;;;;5032373;28;20029;-57
2021/11/09 10:30:25;;;;;;;1.88;1.17;;;23.40;51.10;;;;;;5042215;28;20017;-58
2021/11/09 10:32:51;;;;;;;1.38;1.00;;;23.40;51.10;;;;;;5038987;28;20046;-58
2021/11/09 10:35:19;;;;;;;1.98;1.10;;;23.40;51.10;;;;;;5034455;28;20079;-58
2021/11/09 10:37:57;;;;;;;2.03;1.15;;;23.40;51.10;;;;;;5027419;28;20029;-56
2021/11/09 10:40:32;;;;;;;2.05;1.20;;;23.40;51.20;;;;;;5032789;28;20466;-57
2021/11/09 10:43:04;;;;;;;1.75;1.00;;;23.40;51.10;;;;;;5032950;28;20075;-57
2021/11/09 10:45:35;;;;;;;1.75;1.00;;;23.40;51.10;;;;;;5030877;28;20033;-54
2021/11/09 10:48:04;;;;;;;1.75;1.10;;;23.40;51.10;;;;;;5031452;28;20028;-58
2021/11/09 10:50:35;;;;;;;1.95;1.02;;;23.40;51.20;;;;;;5033946;28;20117;-57
2021/11/09 10:53:20;;;;;;;2.33;1.10;;;23.40;51.10;;;;;;5033992;28;20045;-58
2021/11/09 10:56:15;;;;;;;2.30;1.15;;;23.40;51.20;;;;;;5031177;28;20037;-58
2021/11/09 11:06:27;;;;;;;2.08;1.20;;;23.40;51.20;;;;;;5034908;28;20049;-61
2021/11/09 11:09:02;;;;;;;2.20;1.00;;;23.40;51.20;;;;;;5040032;28;20082;-59
2021/11/09 11:11:31;;;;;;;2.70;1.17;;;23.40;51.20;;;;;;5036788;28;20091;-60
2021/11/09 11:14:07;;;;;;;1.85;1.02;;;23.40;51.10;;;;;;5037503;28;20425;-58
2021/11/09 11:16:50;;;;;;;2.33;1.10;;;23.40;50.90;;;;;;5035510;28;20523;-59
2021/11/09 11:19:30;;;;;;;1.67;1.00;;;23.40;50.80;;;;;;5033293;28;20025;-58
2021/11/09 11:21:58;;;;;;;2.08;1.10;;;23.50;50.80;;;;;;5033963;28;20140;-58
2021/11/09 11:24:24;;;;;;;1.50;1.00;;;23.50;50.80;;;;;;5036683;28;20036;-58
2021/11/09 11:26:51;;;;;;;1.70;1.00;;;23.50;51.30;;;;;;5032988;28;20029;-58
2021/11/09 11:29:23;;;;;;;1.73;0.98;;;23.50;50.80;;;;;;5042427;28;20029;-55
2021/11/09 11:31:50;;;;;;;1.88;1.13;;;23.50;50.80;;;;;;5038020;28;20063;-58
2021/11/09 11:34:17;;;;;;;1.98;1.20;;;23.50;50.80;;;;;;5034637;28;20026;-58
2021/11/09 11:36:44;;;;;;;2.10;1.20;;;23.50;50.80;;;;;;5030633;28;20650;-58
2021/11/09 11:39:11;;;;;;;1.80;1.10;;;23.50;50.80;;;;;;5036177;28;20021;-58
2021/11/09 11:41:40;;;;;;;1.70;1.10;;;23.50;50.80;;;;;;5033870;28;20745;-57
2021/11/09 11:44:07;;;;;;;1.92;1.00;;;23.50;50.80;;;;;;5028442;28;20037;-58
2021/11/09 11:46:33;;;;;;;2.85;1.20;;;23.60;50.80;;;;;;5036996;28;20623;-58
2021/11/09 11:49:03;;;;;;;1.90;1.20;;;23.50;50.90;;;;;;5028881;28;20029;-59
2021/11/09 11:51:35;;;;;;;1.77;1.02;;;23.50;50.80;;;;;;5027880;28;20082;-57
2021/11/09 11:54:01;;;;;;;1.88;1.13;;;23.50;50.70;;;;;;5039536;28;20028;-58
2021/11/09 11:56:42;;;;;;;1.73;1.00;;;23.60;50.70;;;;;;5030155;28;20026;-59
2021/11/09 11:59:21;;;;;;;1.95;1.00;;;23.60;50.80;;;;;;5032543;28;20036;-56
2021/11/09 12:01:49;;;;;;;1.45;0.90;;;23.60;50.70;;;;;;5029783;28;20120;-59
2021/11/09 12:04:45;;;;;;;3.58;1.10;;;23.60;50.60;;;;;;5034884;28;20044;-56
2021/11/09 12:07:17;;;;;;;2.25;1.20;;;23.60;50.40;;;;;;5029042;28;20059;-58
2021/11/09 12:09:47;;;;;;;2.60;1.10;;;23.60;50.40;;;;;;5034197;28;20033;-56
2021/11/09 12:12:21;;;;;;;2.03;1.20;;;23.60;50.50;;;;;;5034646;28;20619;-58
2021/11/09 12:14:50;;;;;;;1.92;1.00;;;23.70;50.40;;;;;;5034705;28;20099;-58
2021/11/09 12:17:42;;;;;;;1.55;0.90;;;23.70;50.50;;;;;;5031096;28;20018;-58
2021/11/09 12:20:09;;;;;;;1.63;1.00;;;23.70;50.40;;;;;;5040670;28;20076;-58
2021/11/09 12:22:52;;;;;;;1.98;1.08;;;23.70;50.40;;;;;;5037601;28;20500;-59
2021/11/09 12:25:21;;;;;;;1.25;0.90;;;23.70;50.40;;;;;;5033741;28;20087;-59
2021/11/09 12:27:47;;;;;;;2.17;1.15;;;23.70;50.40;;;;;;5035520;28;20060;-59
2021/11/09 12:30:37;;;;;;;3.03;1.20;;;23.70;50.50;;;;;;5034899;28;20512;-59
2021/11/09 12:33:14;;;;;;;1.65;0.90;;;23.70;50.40;;;;;;5031596;28;20473;-59
2021/11/09 12:35:45;;;;;;;1.98;0.95;;;23.70;50.40;;;;;;5035052;28;20362;-59
2021/11/09 12:38:22;;;;;;;2.08;1.15;;;23.70;50.40;;;;;;5033970;28;20030;-58
2021/11/09 12:40:52;;;;;;;2.38;1.10;;;23.70;50.30;;;;;;5030437;28;20037;-59
2021/11/09 12:43:22;;;;;;;2.03;1.20;;;23.70;50.30;;;;;;5040059;28;20025;-58
2021/11/09 12:45:53;;;;;;;1.90;1.00;;;23.70;50.30;;;;;;5042025;28;20021;-56
2021/11/09 12:48:29;;;;;;;1.98;1.00;;;23.70;50.40;;;;;;5035418;28;20648;-58
2021/11/09 12:51:07;;;;;;;2.63;1.23;;;23.70;50.30;;;;;;5030389;28;20025;-58
2021/11/09 12:53:44;;;;;;;2.03;1.10;;;23.70;50.30;;;;;;5038207;28;20029;-58
2021/11/09 12:56:12;;;;;;;1.45;1.00;;;23.70;50.20;;;;;;5034773;28;20453;-58
2021/11/09 12:58:47;;;;;;;1.40;0.90;;;23.70;50.20;;;;;;5036526;28;20025;-57
2021/11/09 13:01:33;;;;;;;2.50;1.20;;;23.70;50.30;;;;;;5029678;28;20045;-58
2021/11/09 13:09:20;;;;;;;2.25;1.13;;;23.70;50.20;;;;;;5037747;28;20115;-58
2021/11/09 13:12:03;;;;;;;1.65;0.95;;;23.70;50.30;;;;;;5032403;28;20971;-58
2021/11/09 13:14:36;;;;;;;2.95;1.00;;;23.70;50.30;;;;;;5038868;28;20094;-57
2021/11/09 13:17:12;;;;;;;1.90;1.02;;;23.70;50.30;;;;;;5032369;28;20055;-57
2021/11/09 13:19:41;;;;;;;2.17;1.10;;;23.70;50.20;;;;;;5029068;28;20032;-57
2021/11/09 13:22:15;;;;;;;2.15;1.00;;;23.70;50.30;;;;;;5035256;28;20033;-56
2021/11/09 13:25:00;;;;;;;3.17;1.20;;;23.70;50.30;;;;;;5029766;28;20499;-58
2021/11/09 13:27:42;;;;;;;2.45;1.00;;;23.70;50.30;;;;;;5035684;28;20122;-58
2021/11/09 13:30:20;;;;;;;2.00;0.98;;;23.70;50.30;;;;;;5028663;28;20032;-58
2021/11/09 13:32:55;;;;;;;1.98;1.10;;;23.70;50.40;;;;;;5036518;28;20068;-56
2021/11/09 13:35:23;;;;;;;1.92;1.17;;;23.70;50.40;;;;;;5033369;28;20035;-60
2021/11/09 13:37:51;;;;;;;1.75;1.00;;;23.70;50.10;;;;;;5030271;28;20056;-58
2021/11/09 13:40:20;;;;;;;2.15;1.00;;;23.70;50.20;;;;;;5032515;28;20075;-58
2021/11/09 13:43:00;;;;;;;2.90;1.00;;;23.70;50.20;;;;;;5034669;28;20066;-59
2021/11/09 13:45:26;;;;;;;2.58;1.10;;;23.70;50.00;;;;;;5033656;28;20038;-54
2021/11/09 13:47:53;;;;;;;3.17;1.20;;;23.70;49.80;;;;;;5036881;28;20036;-58
2021/11/09 13:50:18;;;;;;;2.33;0.95;;;23.70;49.80;;;;;;5034452;28;20079;-57
2021/11/09 13:52:47;;;;;;;2.30;1.05;;;23.70;49.70;;;;;;5033487;28;20485;-58
2021/11/09 13:55:14;;;;;;;2.40;1.10;;;23.70;49.80;;;;;;5031329;28;20024;-57
2021/11/09 13:57:40;;;;;;;1.83;1.05;;;23.70;49.60;;;;;;5032453;28;20804;-59
2021/11/09 14:00:30;;;;;;;2.05;0.98;;;23.70;49.60;;;;;;5034637;28;20096;-54
2021/11/09 14:14:41;;;;;;;2.45;1.00;;;23.70;49.50;;;;;;5031165;28;20032;-58
2021/11/09 14:16:51;;;;;;;2.30;1.00;;;23.70;49.50;;;;;;5042251;28;20096;-59
2021/11/09 14:19:42;;;;;;;2.97;1.17;;;23.70;49.40;;;;;;5036544;28;20013;-58
2021/11/09 14:22:17;;;;;;;1.90;1.20;;;23.70;49.30;;;;;;5038865;28;20033;-58
2021/11/09 14:25:00;;;;;;;2.10;1.00;;;23.70;49.30;;;;;;5033881;28;20060;-59
2021/11/09 14:27:31;;;;;;;2.55;1.10;;;23.70;49.40;;;;;;5037590;28;20048;-52
2021/11/09 14:29:59;;;;;;;2.67;1.13;;;23.70;50.00;;;;;;5041050;28;20033;-57
2021/11/09 14:32:27;;;;;;;2.58;1.15;;;23.70;49.40;;;;;;5033624;28;20037;-57
2021/11/09 14:35:06;;;;;;;1.80;0.97;;;23.80;49.40;;;;;;5047320;28;20034;-54
2021/11/09 14:37:41;;;;;;;2.03;1.00;;;23.70;49.30;;;;;;5035174;28;20029;-55
2021/11/09 14:40:11;;;;;;;2.33;1.08;;;23.70;49.30;;;;;;5040709;28;20483;-56
2021/11/09 14:48:06;;;;;;;2.28;1.10;;;23.80;49.20;;;;;;5037088;28;20029;-55
2021/11/09 14:53:25;;;;;;;1.70;1.10;;;23.80;49.20;;;;;;5036759;28;20499;-58
2021/11/09 14:55:57;;;;;;;1.20;0.90;;;23.70;49.20;;;;;;5034229;28;20053;-57
2021/11/09 14:58:24;;;;;;;1.55;1.00;;;23.80;49.30;;;;;;5031656;28;20203;-59
2021/11/09 15:00:51;;;;;;;2.25;1.10;;;23.70;49.20;;;;;;5039808;28;20393;-59
2021/11/09 15:03:16;;;;;;;1.95;1.08;;;23.70;49.20;;;;;;5036367;28;20039;-58
2021/11/09 15:05:43;;;;;;;2.33;1.00;;;23.70;49.20;;;;;;5037562;28;20430;-60
2021/11/09 15:08:54;;;;;;;1.67;0.90;;;23.70;49.30;;;;;;5035389;28;20458;-54
2021/11/09 15:11:10;;;;;;;2.42;1.52;;;23.70;49.30;;;;;;5032301;28;20397;-54
2021/11/09 15:24:58;;;;;;;1.87;1.10;;;23.70;49.30;;;;;;5035904;28;20037;-60
2021/11/09 15:27:55;;;;;;;1.58;0.90;;;23.60;50.10;;;;;;5000087;28;20547;-58
2021/11/09 15:30:24;;;;;;;1.83;0.90;;;23.50;49.60;;;;;;5030527;28;20417;-56
2021/11/09 15:32:50;;;;;;;1.57;0.90;;;23.50;49.60;;;;;;5039660;28;20128;-58
2021/11/09 15:35:23;;;;;;;1.98;0.93;;;23.50;49.60;;;;;;5031211;28;20276;-58
2021/11/09 15:37:52;;;;;;;1.73;1.00;;;23.50;49.70;;;;;;5030371;28;20037;-57
2021/11/09 15:40:21;;;;;;;1.85;0.93;;;23.50;49.80;;;;;;5033707;28;20097;-55
2021/11/09 15:42:48;;;;;;;2.75;1.25;;;23.40;49.80;;;;;;5036637;28;20123;-57
2021/11/09 15:45:15;;;;;;;2.20;1.08;;;23.40;49.80;;;;;;5031110;28;20051;-61
2021/11/09 15:47:40;;;;;;;2.10;1.00;;;23.40;49.80;;;;;;5043844;28;20456;-57
2021/11/09 15:50:08;;;;;;;1.90;1.10;;;23.40;50.40;;;;;;5032474;28;20072;-59
2021/11/09 15:52:34;;;;;;;1.48;0.98;;;23.40;49.90;;;;;;5042490;28;20041;-57
2021/11/09 15:55:00;;;;;;;2.03;0.90;;;23.40;50.00;;;;;;5035920;28;20061;-58
2021/11/09 15:57:26;;;;;;;1.75;1.00;;;23.40;50.00;;;;;;5034943;28;20026;-57